Time;durP1;ratioP1;P1;durP2;ratioP2;P2;SDS_P1;SDS_P2;PMS_P1;PMS_P2;Temp;Humidity;BMP_temperature;BMP_pressure;BME280_temperature;BME280_humidity;BME280_pressure;Samples;Min_cycle;Max_cycle;Signal;HPM_P1;HPM_P2
2022/03/13 00:01:01;;;;;;;13.63;9.73;;;8.20;99.90;;;;;;5013405;28;20042;-79
2022/03/13 00:03:28;;;;;;;13.98;10.38;;;8.20;99.90;;;;;;5000799;28;20050;-79
2022/03/13 00:05:54;;;;;;;14.10;10.05;;;8.10;99.90;;;;;;5008647;28;20045;-80
2022/03/13 00:08:23;;;;;;;13.70;10.43;;;8.10;99.90;;;;;;5015198;28;20045;-79
2022/03/13 00:11:16;;;;;;;14.18;10.75;;;8.10;99.90;;;;;;5004271;28;20199;-80
2022/03/13 00:13:50;;;;;;;13.98;10.10;;;8.10;99.90;;;;;;5015616;28;20045;-79
2022/03/13 00:16:17;;;;;;;15.07;10.68;;;8.00;99.90;;;;;;4999627;28;20479;-80
2022/03/13 00:18:47;;;;;;;13.68;10.25;;;8.00;99.90;;;;;;5008129;28;20049;-80
2022/03/13 00:21:20;;;;;;;15.02;10.45;;;8.00;99.90;;;;;;5019397;28;20046;-81
2022/03/13 00:23:47;;;;;;;13.48;10.80;;;7.90;99.90;;;;;;5008131;28;20418;-81
2022/03/13 00:26:15;;;;;;;13.40;10.75;;;7.90;99.90;;;;;;5001733;28;20049;-79
2022/03/13 00:28:44;;;;;;;15.15;11.02;;;7.80;99.90;;;;;;4998421;28;20145;-78
2022/03/13 00:31:10;;;;;;;15.77;10.60;;;8.00;99.90;;;;;;5023284;28;20048;-80
2022/03/13 00:33:36;;;;;;;14.35;10.85;;;7.70;99.90;;;;;;5003790;28;20046;-80
2022/03/13 00:36:03;;;;;;;14.93;11.02;;;7.60;99.90;;;;;;5008429;28;20041;-80
2022/03/13 00:38:29;;;;;;;12.52;9.98;;;7.60;99.90;;;;;;5024619;28;20120;-80
2022/03/13 00:40:57;;;;;;;14.07;10.85;;;7.50;99.90;;;;;;5015814;28;20121;-81
2022/03/13 00:43:25;;;;;;;15.52;11.25;;;7.50;99.90;;;;;;5023486;28;20067;-81
2022/03/13 00:45:52;;;;;;;13.93;10.38;;;7.50;99.90;;;;;;5015632;28;20136;-80
2022/03/13 00:48:19;;;;;;;14.45;11.50;;;7.90;99.90;;;;;;5008255;28;20141;-78
2022/03/13 00:50:45;;;;;;;16.40;10.70;;;7.30;99.90;;;;;;5018145;28;20486;-79
2022/03/13 00:53:12;;;;;;;14.90;11.07;;;7.30;99.90;;;;;;5019075;28;20111;-80
2022/03/13 00:55:38;;;;;;;16.02;11.23;;;7.30;99.90;;;;;;5018506;28;20053;-80
2022/03/13 00:58:04;;;;;;;14.15;10.95;;;7.20;99.90;;;;;;5002441;28;20045;-79
2022/03/13 01:00:30;;;;;;;16.45;12.00;;;7.20;99.90;;;;;;5020614;28;20046;-79
2022/03/13 01:02:56;;;;;;;14.27;10.77;;;7.20;99.90;;;;;;4987108;28;20037;-78
2022/03/13 01:05:24;;;;;;;16.63;11.32;;;7.20;99.90;;;;;;5003828;28;20053;-80
2022/03/13 01:07:51;;;;;;;14.98;11.52;;;7.30;99.90;;;;;;5004065;28;20045;-79
2022/03/13 01:10:17;;;;;;;15.00;11.48;;;7.30;99.90;;;;;;5018346;28;20114;-78
2022/03/13 01:12:43;;;;;;;13.75;11.50;;;7.30;99.90;;;;;;5019583;28;20376;-79
2022/03/13 01:15:10;;;;;;;14.40;11.38;;;7.40;99.90;;;;;;5002791;28;20056;-80
2022/03/13 01:17:36;;;;;;;15.15;12.05;;;7.40;99.90;;;;;;5020522;28;20096;-80
2022/03/13 01:20:04;;;;;;;15.65;11.25;;;7.40;99.90;;;;;;5011359;28;20041;-79
2022/03/13 01:22:30;;;;;;;16.30;11.55;;;7.40;99.90;;;;;;5005007;28;20221;-80
2022/03/13 01:24:57;;;;;;;15.23;11.68;;;7.50;99.90;;;;;;5019087;28;20550;-79
2022/03/13 01:27:22;;;;;;;15.75;12.05;;;7.50;99.90;;;;;;4987400;28;20160;-79
2022/03/13 01:29:49;;;;;;;14.95;11.88;;;7.60;99.90;;;;;;5004025;28;20173;-81
2022/03/13 01:32:15;;;;;;;15.32;11.02;;;7.70;99.90;;;;;;5016725;28;20121;-79
2022/03/13 01:34:50;;;;;;;16.13;11.55;;;7.60;99.90;;;;;;4993605;28;20377;-79
2022/03/13 01:37:27;;;;;;;15.82;11.57;;;7.60;99.90;;;;;;4993016;28;20422;-79
2022/03/13 01:39:53;;;;;;;15.20;12.02;;;7.60;99.90;;;;;;5020772;28;20057;-80
2022/03/13 01:42:19;;;;;;;14.45;11.35;;;7.60;99.90;;;;;;5006167;28;20046;-79
2022/03/13 01:44:45;;;;;;;16.42;12.10;;;7.60;99.90;;;;;;5002716;28;20615;-79
2022/03/13 01:47:11;;;;;;;15.55;10.68;;;7.60;99.90;;;;;;5000685;28;20064;-80
2022/03/13 01:49:38;;;;;;;16.33;12.35;;;7.60;99.90;;;;;;5020191;28;20038;-80
2022/03/13 01:52:04;;;;;;;16.65;11.30;;;7.50;99.90;;;;;;5002340;28;20041;-80
2022/03/13 01:54:30;;;;;;;19.90;11.38;;;7.50;99.90;;;;;;5010298;28;20057;-79
2022/03/13 01:56:57;;;;;;;15.30;10.85;;;8.20;99.90;;;;;;5005185;28;20053;-79
2022/03/13 01:59:26;;;;;;;15.45;11.40;;;7.50;99.90;;;;;;5017888;28;20065;-80
2022/03/13 02:01:51;;;;;;;15.35;11.32;;;7.50;99.90;;;;;;4989364;28;20072;-79
2022/03/13 02:04:24;;;;;;;15.18;11.00;;;7.40;99.90;;;;;;5003753;28;20092;-79
2022/03/13 02:06:52;;;;;;;13.88;10.95;;;7.50;99.90;;;;;;5020803;28;20057;-80
2022/03/13 02:09:18;;;;;;;14.52;11.25;;;7.40;99.90;;;;;;5006954;28;20057;-79
2022/03/13 02:11:44;;;;;;;14.27;11.40;;;7.40;99.90;;;;;;5023001;28;20045;-80
2022/03/13 02:14:11;;;;;;;13.80;11.32;;;8.30;99.90;;;;;;5038880;28;20050;-79
2022/03/13 02:16:38;;;;;;;15.43;11.50;;;7.30;99.90;;;;;;5030511;28;20060;-80
2022/03/13 02:19:06;;;;;;;13.98;10.75;;;7.40;99.90;;;;;;5023138;28;20049;-80
2022/03/13 02:21:38;;;;;;;16.23;11.07;;;7.30;99.90;;;;;;5007408;28;20049;-79
2022/03/13 02:24:11;;;;;;;16.30;11.73;;;7.30;99.90;;;;;;5015049;28;20041;-78
2022/03/13 02:26:37;;;;;;;15.18;10.95;;;7.20;99.90;;;;;;5022788;28;20051;-80
2022/03/13 02:29:03;;;;;;;16.67;11.93;;;7.20;99.90;;;;;;5029650;28;20082;-79
2022/03/13 02:31:36;;;;;;;16.88;11.93;;;7.10;99.90;;;;;;5024321;28;20049;-80
2022/03/13 02:34:04;;;;;;;13.40;10.48;;;7.10;99.90;;;;;;5021137;28;20180;-80
2022/03/13 02:36:36;;;;;;;15.27;10.98;;;7.00;99.90;;;;;;5013191;28;20037;-78
2022/03/13 02:39:03;;;;;;;16.05;10.75;;;7.10;99.90;;;;;;5008539;28;20384;-79
2022/03/13 02:41:29;;;;;;;15.00;10.57;;;7.00;99.90;;;;;;5027934;28;20057;-79
2022/03/13 02:43:56;;;;;;;14.38;10.45;;;7.00;99.90;;;;;;4980909;28;20048;-80
2022/03/13 02:46:24;;;;;;;15.60;11.30;;;7.00;99.90;;;;;;5021576;28;20050;-80
2022/03/13 02:48:51;;;;;;;15.98;10.38;;;7.00;99.90;;;;;;5005867;28;20053;-78
2022/03/13 02:51:18;;;;;;;13.63;11.10;;;7.00;99.90;;;;;;5019925;28;20052;-80
2022/03/13 02:53:44;;;;;;;14.45;10.75;;;7.00;99.90;;;;;;5026275;28;20491;-79
2022/03/13 02:56:11;;;;;;;15.30;10.95;;;7.10;99.90;;;;;;5022986;28;20124;-79
2022/03/13 02:58:37;;;;;;;14.98;10.93;;;7.00;99.90;;;;;;5021621;28;20046;-80
2022/03/13 03:01:03;;;;;;;13.45;10.70;;;7.10;99.90;;;;;;5021036;28;20056;-79
2022/03/13 03:03:29;;;;;;;13.65;10.98;;;7.10;99.90;;;;;;5008330;28;20435;-79
2022/03/13 03:05:55;;;;;;;16.40;11.10;;;7.10;99.90;;;;;;5005411;28;20050;-80
2022/03/13 03:08:22;;;;;;;14.30;10.80;;;7.10;99.90;;;;;;5021533;28;20064;-81
2022/03/13 03:10:48;;;;;;;13.93;10.45;;;7.10;99.90;;;;;;5021913;28;20049;-80
2022/03/13 03:13:15;;;;;;;16.25;11.40;;;7.10;99.90;;;;;;5024067;28;20394;-79
2022/03/13 03:15:41;;;;;;;15.40;11.13;;;7.10;99.90;;;;;;5013554;28;20063;-80
2022/03/13 03:18:12;;;;;;;13.82;10.75;;;7.30;99.90;;;;;;5019096;28;20554;-81
2022/03/13 03:20:40;;;;;;;14.32;11.07;;;7.10;99.90;;;;;;5014027;28;20046;-80
2022/03/13 03:23:07;;;;;;;13.32;10.98;;;7.10;99.90;;;;;;5022485;28;20046;-79
2022/03/13 03:25:32;;;;;;;15.10;10.90;;;7.20;99.90;;;;;;5010482;28;20049;-80
2022/03/13 03:27:59;;;;;;;14.63;11.18;;;7.20;99.90;;;;;;5020257;28;20123;-79
2022/03/13 03:30:28;;;;;;;14.82;11.07;;;7.20;99.90;;;;;;5022283;28;20554;-80
2022/03/13 03:32:55;;;;;;;14.23;11.15;;;7.10;99.90;;;;;;5020583;28;20105;-80
2022/03/13 03:35:23;;;;;;;15.65;11.57;;;7.20;99.90;;;;;;5007238;28;20064;-81
2022/03/13 03:37:51;;;;;;;13.95;11.05;;;7.20;99.90;;;;;;5012741;28;20050;-78
2022/03/13 03:40:20;;;;;;;15.43;10.98;;;7.20;99.90;;;;;;5009578;28;20053;-79
2022/03/13 03:42:46;;;;;;;16.67;10.95;;;7.20;99.90;;;;;;5020683;28;20068;-78
2022/03/13 03:45:16;;;;;;;13.80;11.18;;;7.30;99.90;;;;;;5018039;28;20046;-80
2022/03/13 03:47:45;;;;;;;15.30;11.00;;;7.30;99.90;;;;;;5018590;28;20050;-79
2022/03/13 03:50:13;;;;;;;14.98;11.38;;;7.30;99.90;;;;;;5034900;28;20057;-79
2022/03/13 03:52:39;;;;;;;13.90;11.25;;;7.30;99.90;;;;;;5018341;28;20037;-79
2022/03/13 03:55:05;;;;;;;14.77;10.90;;;7.30;99.90;;;;;;5003478;28;20048;-80
2022/03/13 03:57:31;;;;;;;17.40;11.70;;;7.40;99.90;;;;;;5019476;28;20061;-80
2022/03/13 03:59:57;;;;;;;14.75;11.35;;;7.40;99.90;;;;;;4989458;28;20080;-80
2022/03/13 04:02:23;;;;;;;15.40;11.48;;;7.40;99.90;;;;;;5035705;28;20471;-79
2022/03/13 04:04:49;;;;;;;17.67;11.65;;;7.40;99.90;;;;;;5007462;28;20050;-79
2022/03/13 04:07:15;;;;;;;15.13;11.18;;;7.40;99.90;;;;;;5011986;28;20053;-79
2022/03/13 04:09:41;;;;;;;14.68;11.18;;;7.40;99.90;;;;;;5003395;28;20048;-79
2022/03/13 04:12:08;;;;;;;17.85;11.23;;;7.40;99.90;;;;;;5007408;28;20095;-79
2022/03/13 04:14:37;;;;;;;19.50;10.75;;;7.40;99.90;;;;;;5022175;28;20050;-79
2022/03/13 04:17:05;;;;;;;18.30;12.25;;;7.40;99.90;;;;;;5017232;28;20046;-78
2022/03/13 04:19:31;;;;;;;13.82;10.90;;;7.40;99.90;;;;;;5016643;28;20053;-79
2022/03/13 04:21:57;;;;;;;14.98;10.82;;;7.40;99.90;;;;;;4993655;28;20041;-78
2022/03/13 04:24:24;;;;;;;15.00;10.90;;;7.40;99.90;;;;;;5002032;28;20045;-79
2022/03/13 04:26:50;;;;;;;14.80;11.45;;;7.40;99.90;;;;;;4984571;28;20128;-78
2022/03/13 04:29:18;;;;;;;14.65;11.10;;;7.40;99.90;;;;;;5015847;28;20096;-78
2022/03/13 04:31:46;;;;;;;14.23;11.20;;;7.40;99.90;;;;;;5015864;28;20052;-78
2022/03/13 04:34:12;;;;;;;13.68;10.93;;;7.50;99.90;;;;;;5017220;28;20045;-78
2022/03/13 04:36:38;;;;;;;17.27;12.23;;;7.30;99.90;;;;;;5014798;28;20463;-79
2022/03/13 04:39:05;;;;;;;18.52;11.82;;;7.30;99.90;;;;;;4985131;28;20046;-79
2022/03/13 04:41:32;;;;;;;17.00;11.85;;;7.30;99.90;;;;;;5001589;28;20384;-78
2022/03/13 04:43:58;;;;;;;16.08;11.48;;;7.30;99.90;;;;;;5014812;28;20052;-78
2022/03/13 04:46:24;;;;;;;15.70;11.82;;;7.30;99.90;;;;;;5002536;28;20469;-79
2022/03/13 04:48:50;;;;;;;15.80;11.88;;;7.30;99.90;;;;;;5016468;28;20317;-79
2022/03/13 04:51:16;;;;;;;14.10;10.43;;;7.20;99.90;;;;;;5017210;28;20439;-78
2022/03/13 04:53:41;;;;;;;13.82;10.98;;;7.20;99.90;;;;;;5015081;28;20104;-78
2022/03/13 04:56:08;;;;;;;14.73;11.32;;;7.30;99.90;;;;;;5015799;28;20399;-79
2022/03/13 04:58:34;;;;;;;13.95;10.32;;;7.20;99.90;;;;;;5015223;28;20057;-79
2022/03/13 05:01:00;;;;;;;15.18;10.75;;;7.20;99.90;;;;;;4999517;28;20530;-79
2022/03/13 05:03:31;;;;;;;13.93;11.02;;;7.30;99.90;;;;;;5012986;28;20065;-79
2022/03/13 05:05:57;;;;;;;15.00;11.10;;;7.40;99.90;;;;;;4999750;28;21883;-78
2022/03/13 05:08:23;;;;;;;17.15;11.45;;;7.30;99.90;;;;;;4991179;28;20104;-78
2022/03/13 05:10:50;;;;;;;15.00;10.88;;;7.30;99.90;;;;;;4998890;28;20057;-78
2022/03/13 05:13:17;;;;;;;17.23;11.77;;;7.30;99.90;;;;;;5015945;28;20484;-79
2022/03/13 05:15:44;;;;;;;15.95;10.95;;;7.40;99.90;;;;;;5012271;28;20084;-78
2022/03/13 05:18:12;;;;;;;16.38;11.88;;;8.20;99.90;;;;;;5015107;28;20053;-79
2022/03/13 05:20:39;;;;;;;14.43;11.25;;;7.80;99.90;;;;;;4998292;28;20048;-78
2022/03/13 05:23:07;;;;;;;17.60;13.00;;;7.40;99.90;;;;;;4991753;28;20041;-79
2022/03/13 05:25:34;;;;;;;17.52;13.23;;;7.40;99.90;;;;;;4999635;28;20223;-79
2022/03/13 05:28:00;;;;;;;17.85;12.80;;;7.40;99.90;;;;;;5015159;28;20072;-78
2022/03/13 05:30:27;;;;;;;16.02;11.80;;;7.40;99.90;;;;;;5015331;28;20053;-79
2022/03/13 05:32:53;;;;;;;15.88;12.15;;;7.40;99.90;;;;;;5007047;28;20053;-79
2022/03/13 05:35:19;;;;;;;16.27;12.38;;;7.40;99.90;;;;;;4974590;28;20049;-78
2022/03/13 05:37:45;;;;;;;16.55;13.05;;;7.40;99.90;;;;;;5018685;28;20531;-78
2022/03/13 05:40:13;;;;;;;17.77;12.05;;;7.50;99.90;;;;;;5016141;28;20050;-78
2022/03/13 05:42:44;;;;;;;16.90;12.38;;;7.40;99.90;;;;;;5014444;28;20045;-78
2022/03/13 05:45:15;;;;;;;17.98;12.05;;;7.30;99.90;;;;;;5003493;28;20570;-78
2022/03/13 05:47:49;;;;;;;16.55;13.10;;;7.40;99.90;;;;;;5002268;28;20060;-78
2022/03/13 05:50:15;;;;;;;15.98;12.52;;;7.40;99.90;;;;;;5018965;28;20124;-79
2022/03/13 05:52:43;;;;;;;17.27;13.23;;;7.40;99.90;;;;;;5019855;28;20187;-79
2022/03/13 05:55:09;;;;;;;15.63;12.10;;;7.40;99.90;;;;;;5018489;28;20046;-78
2022/03/13 05:57:35;;;;;;;16.90;12.80;;;7.60;99.90;;;;;;5003818;28;20394;-79
2022/03/13 06:00:05;;;;;;;16.55;12.20;;;7.40;99.90;;;;;;5018112;28;20084;-78
2022/03/13 06:02:32;;;;;;;17.50;11.95;;;7.30;99.90;;;;;;5007762;28;20087;-79
2022/03/13 06:04:58;;;;;;;17.23;13.10;;;7.40;99.90;;;;;;5009637;28;20061;-79
2022/03/13 06:07:24;;;;;;;17.77;12.65;;;7.40;99.90;;;;;;4986805;28;20378;-78
2022/03/13 06:09:52;;;;;;;16.15;12.55;;;7.40;99.90;;;;;;5011747;28;20514;-78
2022/03/13 06:12:18;;;;;;;17.85;13.05;;;7.40;99.90;;;;;;5004181;28;20122;-78
2022/03/13 06:14:44;;;;;;;16.27;12.43;;;7.40;99.90;;;;;;5004318;28;20053;-79
2022/03/13 06:17:10;;;;;;;16.23;11.32;;;7.40;99.90;;;;;;5018223;28;20084;-79
2022/03/13 06:19:39;;;;;;;15.43;11.75;;;7.40;99.90;;;;;;4987785;28;20073;-79
2022/03/13 06:22:05;;;;;;;18.15;12.13;;;7.90;99.90;;;;;;5017557;28;20053;-78
2022/03/13 06:24:32;;;;;;;17.35;12.02;;;7.40;99.90;;;;;;5016802;28;20064;-79
2022/03/13 06:26:58;;;;;;;15.30;12.25;;;7.40;99.90;;;;;;5009976;28;20085;-78
2022/03/13 06:29:24;;;;;;;16.55;12.07;;;7.50;99.90;;;;;;5005350;28;20057;-78
2022/03/13 06:31:52;;;;;;;16.33;12.07;;;7.50;99.90;;;;;;5004832;28;20112;-79
2022/03/13 06:34:18;;;;;;;16.55;12.15;;;7.50;99.90;;;;;;5017482;28;20065;-79
2022/03/13 06:36:46;;;;;;;16.17;12.68;;;7.50;99.90;;;;;;5017192;28;20049;-79
2022/03/13 06:39:12;;;;;;;16.73;12.13;;;7.50;99.90;;;;;;4987567;28;20581;-79
2022/03/13 06:41:38;;;;;;;17.05;12.38;;;7.50;99.90;;;;;;5002790;28;20047;-79
2022/03/13 06:44:05;;;;;;;16.38;11.88;;;7.50;99.90;;;;;;5001832;28;20117;-79
2022/03/13 06:46:32;;;;;;;15.45;11.68;;;8.20;99.90;;;;;;5017100;28;20041;-79
2022/03/13 06:48:59;;;;;;;17.80;12.88;;;7.60;99.90;;;;;;5002684;28;20059;-79
2022/03/13 06:51:25;;;;;;;15.32;11.40;;;7.60;99.90;;;;;;5018195;28;20049;-79
2022/03/13 06:53:51;;;;;;;16.48;12.15;;;7.60;99.90;;;;;;5008744;28;20049;-78
2022/03/13 06:56:17;;;;;;;17.10;12.20;;;7.60;99.90;;;;;;5009389;28;20121;-79
2022/03/13 06:58:43;;;;;;;17.98;11.80;;;7.60;99.90;;;;;;5012597;28;20046;-79
2022/03/13 07:01:10;;;;;;;15.65;11.75;;;7.60;99.90;;;;;;5001563;28;20116;-78
2022/03/13 07:03:36;;;;;;;16.02;12.15;;;7.60;99.90;;;;;;4989142;28;20052;-79
2022/03/13 07:06:04;;;;;;;14.50;12.02;;;7.60;99.90;;;;;;5017938;28;20065;-79
2022/03/13 07:08:32;;;;;;;16.92;12.43;;;7.60;99.90;;;;;;4987711;28;20060;-78
2022/03/13 07:10:59;;;;;;;17.33;11.77;;;7.60;99.90;;;;;;5016265;28;20072;-81
2022/03/13 07:13:30;;;;;;;14.07;10.88;;;7.80;99.90;;;;;;5017830;28;20151;-79
2022/03/13 07:15:56;;;;;;;16.10;11.27;;;7.70;99.90;;;;;;5008748;28;20057;-79
2022/03/13 07:18:22;;;;;;;14.02;10.30;;;7.70;99.90;;;;;;5017569;28;20046;-78
2022/03/13 07:20:48;;;;;;;16.13;10.57;;;7.70;99.90;;;;;;5016212;28;20064;-78
2022/03/13 07:23:14;;;;;;;15.48;10.13;;;7.80;99.90;;;;;;5004949;28;20483;-79
2022/03/13 07:25:39;;;;;;;15.27;10.65;;;7.90;99.90;;;;;;4992789;28;20136;-78
2022/03/13 07:28:06;;;;;;;15.48;10.50;;;7.80;99.90;;;;;;4993251;28;20050;-79
2022/03/13 07:30:32;;;;;;;14.27;10.15;;;7.80;99.90;;;;;;5016820;28;20054;-79
2022/03/13 07:32:58;;;;;;;14.32;10.35;;;7.90;99.90;;;;;;5019574;28;20081;-79
2022/03/13 07:35:24;;;;;;;12.85;10.10;;;7.90;99.90;;;;;;5002491;28;20095;-79
2022/03/13 07:37:52;;;;;;;14.15;9.85;;;7.90;99.90;;;;;;5018448;28;20045;-79
2022/03/13 07:40:18;;;;;;;12.38;9.20;;;8.50;99.90;;;;;;5001475;28;20054;-80
2022/03/13 07:42:44;;;;;;;14.15;9.30;;;8.40;99.90;;;;;;5003863;28;20398;-80
2022/03/13 07:45:10;;;;;;;12.75;9.32;;;8.00;99.90;;;;;;4990267;28;20128;-79
2022/03/13 07:47:36;;;;;;;13.65;8.90;;;8.10;99.90;;;;;;4985280;28;20049;-80
2022/03/13 07:50:03;;;;;;;14.75;9.50;;;8.10;99.90;;;;;;5020529;28;20056;-79
2022/03/13 07:52:29;;;;;;;11.27;8.82;;;8.10;99.90;;;;;;5018630;28;20415;-79
2022/03/13 07:54:54;;;;;;;13.82;9.65;;;8.10;99.90;;;;;;5034337;28;20050;-80
2022/03/13 07:57:20;;;;;;;11.73;9.43;;;8.10;99.90;;;;;;5008880;28;20081;-79
2022/03/13 07:59:47;;;;;;;11.18;8.85;;;8.10;99.90;;;;;;5002210;28;20121;-79
2022/03/13 08:02:14;;;;;;;11.75;9.35;;;8.10;99.90;;;;;;4988061;28;20050;-79
2022/03/13 08:04:41;;;;;;;14.95;9.48;;;8.20;99.90;;;;;;5017681;28;20137;-79
2022/03/13 08:07:06;;;;;;;12.40;9.02;;;8.20;99.90;;;;;;5017091;28;20483;-79
2022/03/13 08:09:34;;;;;;;12.60;9.60;;;8.20;99.90;;;;;;5000990;28;20075;-80
2022/03/13 08:12:00;;;;;;;11.00;8.60;;;8.50;99.90;;;;;;4992852;28;20437;-79
2022/03/13 08:14:27;;;;;;;14.07;9.70;;;8.20;99.90;;;;;;5032905;28;20415;-80
2022/03/13 08:16:52;;;;;;;13.00;9.73;;;8.20;99.90;;;;;;5001733;28;20125;-80
2022/03/13 08:19:18;;;;;;;12.80;8.90;;;8.30;99.90;;;;;;5002527;28;20128;-80
2022/03/13 08:21:44;;;;;;;14.50;9.70;;;8.30;99.90;;;;;;5008525;28;20096;-80
2022/03/13 08:24:13;;;;;;;12.88;8.63;;;8.40;99.90;;;;;;5015350;28;20038;-80
2022/03/13 08:26:40;;;;;;;11.98;9.30;;;8.40;99.90;;;;;;5004244;28;20108;-80
2022/03/13 08:29:10;;;;;;;14.32;9.48;;;8.50;99.90;;;;;;5014828;28;20796;-80
2022/03/13 08:31:37;;;;;;;13.90;9.63;;;8.50;99.90;;;;;;4977200;28;20049;-79
2022/03/13 08:34:07;;;;;;;15.20;9.60;;;8.60;99.90;;;;;;5015543;28;20625;-78
2022/03/13 08:36:35;;;;;;;14.10;9.27;;;8.70;99.90;;;;;;5002024;28;20049;-80
2022/03/13 08:39:00;;;;;;;12.50;9.52;;;8.70;99.90;;;;;;5007883;28;20053;-80
2022/03/13 08:41:26;;;;;;;11.63;9.52;;;8.80;99.90;;;;;;5015659;28;20045;-80
2022/03/13 08:43:52;;;;;;;13.57;8.82;;;8.80;99.90;;;;;;5030527;28;20046;-80
2022/03/13 08:46:18;;;;;;;12.32;9.07;;;8.80;99.90;;;;;;5016461;28;20058;-80
2022/03/13 08:48:43;;;;;;;13.20;8.95;;;8.90;99.90;;;;;;5004830;28;20056;-80
2022/03/13 08:51:12;;;;;;;12.48;8.73;;;8.90;99.90;;;;;;5000587;28;20045;-78
2022/03/13 08:53:38;;;;;;;13.18;9.18;;;8.90;99.90;;;;;;5001001;28;20056;-79
2022/03/13 08:56:04;;;;;;;11.43;9.32;;;9.10;99.90;;;;;;5013817;28;20696;-79
2022/03/13 08:58:30;;;;;;;12.25;9.27;;;9.50;99.90;;;;;;4999137;28;20132;-78
2022/03/13 09:00:56;;;;;;;11.27;9.30;;;9.10;99.90;;;;;;5013356;28;20050;-80
2022/03/13 09:03:22;;;;;;;11.75;8.90;;;9.10;99.90;;;;;;4990335;28;20046;-80
2022/03/13 09:05:48;;;;;;;13.32;9.20;;;9.20;99.90;;;;;;4999784;28;20041;-80
2022/03/13 09:08:30;;;;;;;14.73;9.35;;;9.20;99.90;;;;;;5001113;28;20045;-80
2022/03/13 09:10:56;;;;;;;12.40;9.50;;;9.30;99.90;;;;;;5000810;28;20053;-80
2022/03/13 09:13:22;;;;;;;13.00;9.82;;;9.30;99.90;;;;;;5000413;28;20557;-80
2022/03/13 09:15:48;;;;;;;12.05;9.65;;;9.40;99.90;;;;;;5001148;28;20053;-80
2022/03/13 09:18:14;;;;;;;12.20;9.30;;;9.40;99.90;;;;;;5001079;28;20108;-79
2022/03/13 09:20:40;;;;;;;11.85;9.23;;;9.50;99.90;;;;;;4985739;28;20518;-79
2022/03/13 09:23:06;;;;;;;13.82;9.25;;;9.60;99.90;;;;;;5001097;28;20052;-80
2022/03/13 09:25:35;;;;;;;12.60;9.48;;;9.70;99.90;;;;;;5000704;28;20087;-83
2022/03/13 09:28:02;;;;;;;12.95;9.20;;;10.10;99.90;;;;;;5002972;28;20212;-78
2022/03/13 09:30:28;;;;;;;12.60;9.35;;;10.00;99.90;;;;;;5000384;28;20079;-81
2022/03/13 09:32:54;;;;;;;12.55;8.93;;;10.10;99.90;;;;;;5015419;28;20515;-80
2022/03/13 09:35:22;;;;;;;14.82;9.90;;;10.20;99.90;;;;;;4987088;28;20053;-81
2022/03/13 09:37:49;;;;;;;10.32;8.50;;;10.30;99.90;;;;;;5016458;28;20376;-80
2022/03/13 09:40:20;;;;;;;12.93;10.30;;;10.30;99.90;;;;;;5001324;28;20045;-81
2022/03/13 09:42:47;;;;;;;11.20;9.32;;;10.30;99.90;;;;;;5017371;28;20073;-83
2022/03/13 09:45:13;;;;;;;12.40;9.50;;;10.40;99.90;;;;;;5001123;28;20495;-83
2022/03/13 09:47:39;;;;;;;13.13;8.85;;;10.40;99.90;;;;;;5000986;28;20072;-80
2022/03/13 09:50:07;;;;;;;12.93;9.32;;;10.50;99.90;;;;;;5033249;28;20381;-81
2022/03/13 09:52:34;;;;;;;12.68;9.73;;;10.50;99.90;;;;;;5018546;28;20589;-80
2022/03/13 09:55:00;;;;;;;11.52;9.27;;;10.50;99.90;;;;;;5001146;28;20042;-80
2022/03/13 09:57:26;;;;;;;15.45;10.00;;;10.60;99.90;;;;;;5001976;28;20045;-81
2022/03/13 09:59:55;;;;;;;12.27;9.32;;;10.60;99.90;;;;;;5016393;28;20454;-80
2022/03/13 10:02:31;;;;;;;14.95;10.55;;;10.60;99.90;;;;;;5018426;28;20046;-80
2022/03/13 10:04:58;;;;;;;13.57;9.50;;;10.60;99.90;;;;;;5007369;28;20503;-80
2022/03/13 10:07:24;;;;;;;12.52;9.15;;;10.50;99.90;;;;;;5016394;28;20053;-80
2022/03/13 10:09:50;;;;;;;11.85;8.77;;;10.60;99.90;;;;;;5002141;28;20052;-81
2022/03/13 10:12:16;;;;;;;12.68;9.63;;;10.60;99.90;;;;;;5033786;28;20045;-80
2022/03/13 10:15:00;;;;;;;13.57;9.40;;;10.60;99.90;;;;;;5001399;28;20057;-82
2022/03/13 10:17:32;;;;;;;13.18;9.13;;;10.70;99.90;;;;;;5016735;28;20046;-80
2022/03/13 10:20:16;;;;;;;12.55;9.65;;;10.70;99.90;;;;;;5015125;28;20517;-80
2022/03/13 10:22:45;;;;;;;12.85;9.50;;;10.70;99.90;;;;;;5017092;28;20057;-80
2022/03/13 10:25:13;;;;;;;12.35;9.63;;;10.80;99.90;;;;;;5000665;28;20139;-80
2022/03/13 10:27:40;;;;;;;13.00;9.55;;;10.90;99.90;;;;;;5001988;28;20060;-80
2022/03/13 10:30:08;;;;;;;12.85;9.82;;;11.00;99.90;;;;;;4999360;28;20049;-80
2022/03/13 10:32:34;;;;;;;14.38;9.75;;;11.10;99.90;;;;;;5017215;28;20050;-81
2022/03/13 10:35:01;;;;;;;13.27;9.77;;;11.20;99.90;;;;;;4987617;28;20148;-81
2022/03/13 10:37:43;;;;;;;13.27;10.05;;;11.40;99.90;;;;;;5019675;28;20045;-80
2022/03/13 10:40:13;;;;;;;13.18;9.98;;;11.60;99.90;;;;;;5034758;28;20566;-82
2022/03/13 10:42:43;;;;;;;11.68;9.05;;;11.70;99.90;;;;;;5019828;28;20037;-82
2022/03/13 10:45:39;;;;;;;14.20;9.82;;;11.90;99.90;;;;;;5020543;28;20107;-82
2022/03/13 10:48:29;;;;;;;11.93;9.48;;;12.10;99.90;;;;;;5020485;28;20046;-81
2022/03/13 10:50:57;;;;;;;12.05;9.65;;;12.30;99.90;;;;;;5012107;28;20132;-81
2022/03/13 10:53:24;;;;;;;13.02;9.75;;;12.40;99.90;;;;;;5018909;28;20069;-81
2022/03/13 10:56:12;;;;;;;13.07;9.80;;;12.40;99.90;;;;;;5003597;28;20053;-82
2022/03/13 10:58:45;;;;;;;13.40;9.95;;;12.30;99.90;;;;;;5019263;28;20053;-81
2022/03/13 11:01:13;;;;;;;12.48;10.25;;;12.50;99.90;;;;;;5003330;28;20459;-80
2022/03/13 11:03:54;;;;;;;11.93;9.90;;;12.50;99.90;;;;;;5036302;28;20041;-82
2022/03/13 11:06:24;;;;;;;12.27;9.73;;;12.50;99.90;;;;;;5020097;28;20495;-81
2022/03/13 11:08:55;;;;;;;12.70;10.38;;;12.90;99.90;;;;;;5035013;28;20543;-82
2022/03/13 11:11:27;;;;;;;11.98;10.57;;;13.20;99.90;;;;;;5021071;28;20046;-81
2022/03/13 11:13:55;;;;;;;13.93;10.05;;;13.40;99.90;;;;;;5016707;28;20076;-81
2022/03/13 11:16:27;;;;;;;12.55;10.35;;;13.60;99.90;;;;;;5004150;28;20144;-81
2022/03/13 11:19:01;;;;;;;14.10;10.73;;;13.70;99.90;;;;;;5002930;28;20164;-82
2022/03/13 11:21:27;;;;;;;13.30;9.95;;;14.00;99.90;;;;;;5010124;28;20046;-80
2022/03/13 11:23:53;;;;;;;11.75;10.13;;;14.20;99.90;;;;;;5002154;28;20046;-81
2022/03/13 11:26:22;;;;;;;11.68;9.77;;;14.40;99.90;;;;;;5002038;28;20108;-81
2022/03/13 11:28:49;;;;;;;12.85;10.60;;;14.70;99.90;;;;;;5002472;28;20104;-81
2022/03/13 11:31:35;;;;;;;12.18;10.13;;;14.90;99.90;;;;;;5002943;28;20075;-81
2022/03/13 11:34:14;;;;;;;11.60;10.00;;;15.10;99.90;;;;;;5017150;28;20076;-81
2022/03/13 11:36:44;;;;;;;11.88;10.23;;;15.30;99.90;;;;;;5035976;28;20104;-81
2022/03/13 11:39:13;;;;;;;12.35;10.02;;;15.60;99.90;;;;;;5008893;28;20050;-83
2022/03/13 11:41:47;;;;;;;13.85;10.30;;;15.90;99.90;;;;;;4999015;28;20046;-82
2022/03/13 11:44:21;;;;;;;11.65;10.00;;;16.20;99.70;;;;;;5016113;28;20534;-81
2022/03/13 11:46:51;;;;;;;12.57;9.32;;;16.50;98.80;;;;;;5002439;28;20056;-82
2022/03/13 11:49:20;;;;;;;12.35;9.55;;;16.50;98.90;;;;;;5019295;28;20049;-82
2022/03/13 11:51:46;;;;;;;11.57;9.63;;;16.40;98.60;;;;;;5019230;28;20128;-82
2022/03/13 11:54:53;;;;;;;11.65;10.15;;;16.50;98.70;;;;;;5003188;28;20045;-82
2022/03/13 11:57:20;;;;;;;12.20;10.35;;;16.90;98.30;;;;;;5017820;28;20046;-83
2022/03/13 11:59:49;;;;;;;12.85;10.25;;;17.30;98.30;;;;;;5019896;28;20049;-82
2022/03/13 12:02:41;;;;;;;12.13;9.82;;;17.70;97.50;;;;;;5002845;28;20046;-83
2022/03/13 12:05:25;;;;;;;10.90;9.35;;;18.10;95.80;;;;;;5012278;28;20103;-82
2022/03/13 12:08:06;;;;;;;12.27;9.15;;;18.50;94.20;;;;;;5003266;28;20046;-82
2022/03/13 12:10:47;;;;;;;10.70;7.93;;;18.60;94.20;;;;;;5018946;28;20033;-82
2022/03/13 12:13:18;;;;;;;11.63;9.48;;;18.70;93.90;;;;;;5018885;28;20057;-82
2022/03/13 12:15:45;;;;;;;10.65;8.98;;;19.10;92.70;;;;;;5019806;28;20123;-82
2022/03/13 12:18:17;;;;;;;10.20;8.40;;;19.30;92.10;;;;;;5002093;28;20050;-82
2022/03/13 12:20:47;;;;;;;10.02;8.77;;;19.50;90.90;;;;;;5003208;28;20049;-83
2022/03/13 12:23:31;;;;;;;10.40;8.70;;;19.10;89.10;;;;;;5017369;28;20050;-82
2022/03/13 12:26:18;;;;;;;10.32;8.70;;;19.50;89.10;;;;;;5015354;28;20092;-83
2022/03/13 12:28:44;;;;;;;11.90;9.35;;;19.30;86.80;;;;;;5034275;28;20062;-83
2022/03/13 12:31:11;;;;;;;10.75;8.73;;;19.40;89.00;;;;;;5001319;28;20056;-83
2022/03/13 12:33:45;;;;;;;10.43;8.88;;;19.30;88.10;;;;;;5035219;28;20038;-83
2022/03/13 12:36:11;;;;;;;10.38;8.77;;;19.30;86.30;;;;;;5001472;28;20050;-82
2022/03/13 12:38:42;;;;;;;12.35;9.25;;;19.40;87.30;;;;;;5034850;28;20064;-85
2022/03/13 12:41:09;;;;;;;12.32;9.65;;;19.30;87.50;;;;;;4986392;28;20503;-82
2022/03/13 12:43:57;;;;;;;14.60;9.68;;;19.10;86.90;;;;;;5017368;28;20136;-82